Pagrindinis puslapis
METAR-TAF:

METAR-TAF

Oro uostai :

Mataram, Indonezija

platuma: 08-45-29S, ilguma: 116-16-35E, Aukštis: 97 m

Dabartinis oras

Ataskaita buvo paskelbta 14 minutes, ne 09:00 UTC
Vėjas 8 kt iš Pietų, svyruoja nuo Pietryčių ir Pietų/Pietvakarių
Temperatūra 27°C
Drėgmė 84%
Slėgis 1006 hPa
Matomumas: 3000 m
Mažai debesys ne aukštis 1500 ft, Liūtiniai kamuoliniai debesys.
Su prošvaistėmis ne aukštis 1600 ft
lietus

METAR: WADL 170900Z 17008KT 140V200 3000 RA FEW015CB BKN016 27/24 Q1006 TEMPO TL1000 RA RMK CB ALL RWY

Laikas: 16:14 (09:14 UTC)

Prognozė

Ataskaita buvo paskelbta 4 valandos ir 14 minutes, ne 05:00 UTC
Prognozė galioja nuo 17 metu 06 UTC su 18 metu 06 UTC
Vėjas 10 kt iš Vakarų
Matomumas: 8000 m
Su prošvaistėmis ne aukštis 1600 ft
Laikinai
nuo 17 metu 06 UTC su 17 metu 08 UTC
Matomumas: 3000 m
Mažai debesys ne aukštis 1500 ft, Liūtiniai kamuoliniai debesys.
perkūnija, lietus

TAF: WADL 170500Z 1706/1806 28010KT 8000 BKN016 TEMPO 1706/1708 3000 TSRA FEW015CB

Orai ataskaitas ir orų prognozės (METAR, TAF).

turimą stotys yra geltonos ir raudonos taškus žemėlapyje.

Perkelti pele per norėdami pamatyti stoties vardą.

Tada spustelėkite, norėdami matyti oro stebėjimo ir prognozės.

Norėdami pakeisti žemėlapį: spustelėkite ant žalios mygtukų su juodo kryžiaus žemyn,; žalią mygtuką su brūkšneliu, jei norite nutolinti; arba žalių rodyklių gretimoms žemėlapius.


METAR-TAF: